AAL585 KMIA-SEQM
Flight info
| Callsign | AAL585 |
|---|---|
| Flight time | N/A |
| Altitude | 37000 |
| Route | MAYNR3 FUNDI UM335 ARNAL UL465 SEKMA/N0458F390 UL465 TBG UM674 QIT |
| Aircraft | B38M/M-SDE1FGHILORVWXY/HB1 |
Departure
| Time | 2026-04-30 12:55 |
|---|---|
| Airport | Miami International Airport (KMIA) |
Arrival
| Time | N/A |
|---|---|
| Airport | Mariscal Sucre International Airport (SEQM) |
| Time | Latitude | Longitude | Altitude | Speed | Heading |
|---|---|---|---|---|---|
| 2026-04-30 12:24 | 25.79491 | -80.28335 | 17 ft | 0 kts | 287° |
| 2026-04-30 12:46 | 25.79486 | -80.28315 | 17 ft | 4 kts | 287° |
| 2026-04-30 12:46 | 25.79477 | -80.28287 | 19 ft | 4 kts | 287° |
| 2026-04-30 12:47 | 25.79469 | -80.28258 | 18 ft | 4 kts | 287° |
| 2026-04-30 12:47 | 25.79464 | -80.28240 | 18 ft | 0 kts | 287° |
| 2026-04-30 12:50 | 25.79464 | -80.28242 | 18 ft | 0 kts | 279° |
| 2026-04-30 12:51 | 25.79454 | -80.28255 | 19 ft | 7 kts | 219° |
| 2026-04-30 12:51 | 25.79381 | -80.28263 | 17 ft | 14 kts | 179° |
| 2026-04-30 12:51 | 25.79294 | -80.28319 | 19 ft | 15 kts | 224° |
| 2026-04-30 12:51 | 25.79208 | -80.28393 | 17 ft | 16 kts | 186° |
| 2026-04-30 12:52 | 25.79138 | -80.28313 | 18 ft | 15 kts | 121° |
| 2026-04-30 12:52 | 25.79079 | -80.28208 | 18 ft | 17 kts | 120° |
| 2026-04-30 12:52 | 25.79019 | -80.28091 | 18 ft | 18 kts | 118° |
| 2026-04-30 12:52 | 25.78953 | -80.27963 | 18 ft | 17 kts | 120° |
| 2026-04-30 12:53 | 25.78908 | -80.27872 | 18 ft | 14 kts | 119° |
| 2026-04-30 12:53 | 25.78876 | -80.27764 | 18 ft | 16 kts | 93° |
| 2026-04-30 12:53 | 25.78825 | -80.27665 | 17 ft | 16 kts | 141° |
| 2026-04-30 12:53 | 25.78776 | -80.27645 | 19 ft | 4 kts | 213° |
| 2026-04-30 12:54 | 25.78770 | -80.27669 | 18 ft | 8 kts | 265° |
| 2026-04-30 12:54 | 25.78755 | -80.27990 | 17 ft | 80 kts | 268° |
| 2026-04-30 12:54 | 25.78720 | -80.28861 | 17 ft | 146 kts | 268° |
| 2026-04-30 12:54 | 25.78670 | -80.30142 | 281 ft | 178 kts | 266° |
| 2026-04-30 12:55 | 25.78561 | -80.31569 | 953 ft | 189 kts | 264° |
| 2026-04-30 12:55 | 25.78429 | -80.33041 | 1756 ft | 202 kts | 264° |
| 2026-04-30 12:55 | 25.78333 | -80.34745 | 2158 ft | 239 kts | 268° |
| 2026-04-30 12:55 | 25.78312 | -80.36644 | 3022 ft | 252 kts | 269° |
| 2026-04-30 12:56 | 25.78094 | -80.38626 | 3839 ft | 265 kts | 248° |
| 2026-04-30 12:56 | 25.77097 | -80.40308 | 5005 ft | 263 kts | 226° |
| 2026-04-30 12:56 | 25.75823 | -80.41817 | 5951 ft | 272 kts | 227° |
| 2026-04-30 12:56 | 25.74476 | -80.43313 | 6912 ft | 277 kts | 217° |
| 2026-04-30 12:57 | 25.72719 | -80.44197 | 7865 ft | 281 kts | 192° |
| 2026-04-30 12:57 | 25.70768 | -80.44328 | 8729 ft | 289 kts | 182° |
| 2026-04-30 12:57 | 25.68738 | -80.44324 | 9620 ft | 295 kts | 175° |
| 2026-04-30 12:57 | 25.66761 | -80.43654 | 10424 ft | 305 kts | 151° |
| 2026-04-30 12:58 | 25.65110 | -80.42078 | 10875 ft | 326 kts | 126° |
| 2026-04-30 12:58 | 25.63949 | -80.39842 | 11292 ft | 345 kts | 119° |
| 2026-04-30 12:58 | 25.62804 | -80.37589 | 11758 ft | 359 kts | 122° |
| 2026-04-30 12:58 | 25.61155 | -80.35494 | 12445 ft | 363 kts | 143° |
| 2026-04-30 12:59 | 25.58967 | -80.34154 | 13172 ft | 366 kts | 163° |
| 2026-04-30 12:59 | 25.56453 | -80.33688 | 13807 ft | 367 kts | 184° |
| 2026-04-30 12:59 | 25.53917 | -80.34161 | 14456 ft | 367 kts | 199° |
| 2026-04-30 12:59 | 25.51476 | -80.34917 | 15078 ft | 371 kts | 199° |
| 2026-04-30 13:00 | 25.48984 | -80.35705 | 15750 ft | 374 kts | 199° |
| 2026-04-30 13:00 | 25.46471 | -80.36515 | 16389 ft | 377 kts | 199° |
| 2026-04-30 13:00 | 25.43929 | -80.37343 | 17025 ft | 381 kts | 199° |
| 2026-04-30 13:00 | 25.41377 | -80.38179 | 17648 ft | 384 kts | 199° |
| 2026-04-30 13:01 | 25.38798 | -80.39026 | 18262 ft | 388 kts | 199° |
| 2026-04-30 13:01 | 25.36204 | -80.39878 | 18782 ft | 391 kts | 199° |
| 2026-04-30 13:01 | 25.33585 | -80.40737 | 19288 ft | 394 kts | 199° |
| 2026-04-30 13:01 | 25.30938 | -80.41606 | 19747 ft | 399 kts | 199° |
| 2026-04-30 13:02 | 25.28256 | -80.42486 | 20159 ft | 405 kts | 199° |
| 2026-04-30 13:02 | 25.25578 | -80.43364 | 20682 ft | 407 kts | 199° |
| 2026-04-30 13:02 | 25.22842 | -80.44261 | 21148 ft | 412 kts | 199° |
| 2026-04-30 13:02 | 25.20080 | -80.45166 | 21633 ft | 415 kts | 199° |
| 2026-04-30 13:03 | 25.17299 | -80.46078 | 22107 ft | 419 kts | 199° |
| 2026-04-30 13:03 | 25.14493 | -80.46997 | 22570 ft | 423 kts | 199° |
| 2026-04-30 13:03 | 25.11658 | -80.47925 | 23032 ft | 426 kts | 199° |
| 2026-04-30 13:03 | 25.08801 | -80.48860 | 23487 ft | 430 kts | 199° |
| 2026-04-30 13:04 | 25.05929 | -80.49798 | 23867 ft | 434 kts | 199° |
| 2026-04-30 13:04 | 25.03025 | -80.50747 | 24292 ft | 435 kts | 199° |
| 2026-04-30 13:04 | 25.00112 | -80.51698 | 24706 ft | 437 kts | 199° |
| 2026-04-30 13:04 | 24.97178 | -80.52657 | 25086 ft | 440 kts | 199° |
| 2026-04-30 13:05 | 24.94276 | -80.53604 | 25498 ft | 441 kts | 198° |
| 2026-04-30 13:05 | 24.91323 | -80.54569 | 25913 ft | 443 kts | 199° |
| 2026-04-30 13:05 | 24.88358 | -80.55535 | 26326 ft | 444 kts | 199° |
| 2026-04-30 13:06 | 24.82731 | -80.58236 | 27085 ft | 440 kts | 221° |
| 2026-04-30 13:06 | 24.80584 | -80.60606 | 27407 ft | 438 kts | 235° |
| 2026-04-30 13:06 | 24.78824 | -80.63358 | 27721 ft | 440 kts | 238° |
| 2026-04-30 13:06 | 24.77128 | -80.66129 | 28052 ft | 442 kts | 238° |
| 2026-04-30 13:07 | 24.75433 | -80.68973 | 28405 ft | 444 kts | 239° |
| 2026-04-30 13:07 | 24.73763 | -80.71811 | 28736 ft | 447 kts | 239° |
| 2026-04-30 13:07 | 24.72066 | -80.74716 | 29077 ft | 449 kts | 239° |
| 2026-04-30 13:07 | 24.70377 | -80.77619 | 29368 ft | 452 kts | 239° |
| 2026-04-30 13:08 | 24.68678 | -80.80539 | 29675 ft | 454 kts | 238° |
| 2026-04-30 13:08 | 24.66972 | -80.83469 | 30012 ft | 456 kts | 238° |
| 2026-04-30 13:08 | 24.65255 | -80.86420 | 30283 ft | 458 kts | 238° |
| 2026-04-30 13:08 | 24.63530 | -80.89381 | 30555 ft | 460 kts | 238° |
| 2026-04-30 13:09 | 24.61822 | -80.92310 | 30813 ft | 462 kts | 239° |
| 2026-04-30 13:09 | 24.60068 | -80.95287 | 30947 ft | 468 kts | 237° |
| 2026-04-30 13:09 | 24.57868 | -80.97937 | 31232 ft | 473 kts | 221° |
| 2026-04-30 13:09 | 24.55098 | -80.99924 | 31494 ft | 479 kts | 208° |
| 2026-04-30 13:10 | 24.51944 | -81.01147 | 31727 ft | 485 kts | 193° |
| 2026-04-30 13:10 | 24.48575 | -81.01487 | 32048 ft | 487 kts | 181° |
| 2026-04-30 13:10 | 24.45181 | -81.01512 | 32361 ft | 488 kts | 181° |
| 2026-04-30 13:10 | 24.41787 | -81.01522 | 32711 ft | 488 kts | 181° |
| 2026-04-30 13:11 | 24.38383 | -81.01510 | 33086 ft | 487 kts | 180° |
| 2026-04-30 13:11 | 24.35041 | -81.01486 | 33465 ft | 486 kts | 180° |
| 2026-04-30 13:11 | 24.31653 | -81.01459 | 33852 ft | 485 kts | 180° |
| 2026-04-30 13:11 | 24.28282 | -81.01431 | 34204 ft | 484 kts | 180° |
| 2026-04-30 13:12 | 24.24911 | -81.01403 | 34507 ft | 484 kts | 180° |
| 2026-04-30 13:12 | 24.21540 | -81.01374 | 34789 ft | 484 kts | 180° |
| 2026-04-30 13:12 | 24.18172 | -81.01346 | 35063 ft | 484 kts | 180° |
| 2026-04-30 13:13 | 24.11429 | -81.01290 | 35602 ft | 483 kts | 180° |
| 2026-04-30 13:13 | 24.08071 | -81.01262 | 35953 ft | 481 kts | 181° |
| 2026-04-30 13:13 | 24.01443 | -81.01206 | 36481 ft | 480 kts | 180° |
| 2026-04-30 13:14 | 23.98099 | -81.01071 | 36713 ft | 480 kts | 179° |
| 2026-04-30 13:14 | 23.94757 | -81.00921 | 36924 ft | 480 kts | 179° |
| 2026-04-30 13:14 | 23.88058 | -81.00640 | 36994 ft | 480 kts | 179° |
| 2026-04-30 13:15 | 23.78092 | -81.00227 | 36993 ft | 479 kts | 179° |
| 2026-04-30 13:16 | 23.71446 | -80.99952 | 37001 ft | 478 kts | 179° |
| 2026-04-30 13:16 | 23.64800 | -80.99677 | 36999 ft | 478 kts | 179° |
| 2026-04-30 13:17 | 23.54824 | -80.99265 | 36999 ft | 478 kts | 179° |
| 2026-04-30 13:18 | 23.44851 | -80.98854 | 36999 ft | 477 kts | 180° |
| 2026-04-30 13:18 | 23.34930 | -80.98446 | 37002 ft | 477 kts | 180° |
| 2026-04-30 13:19 | 23.28286 | -80.98172 | 37001 ft | 477 kts | 180° |
| 2026-04-30 13:19 | 23.21641 | -80.97892 | 37005 ft | 477 kts | 180° |
| 2026-04-30 13:20 | 23.15015 | -80.97613 | 36996 ft | 477 kts | 180° |
| 2026-04-30 13:20 | 23.08359 | -80.97331 | 37008 ft | 478 kts | 180° |
| 2026-04-30 13:21 | 23.01765 | -80.97051 | 37008 ft | 478 kts | 180° |
| 2026-04-30 13:22 | 22.91787 | -80.96661 | 37006 ft | 478 kts | 180° |
| 2026-04-30 13:22 | 22.81812 | -80.96270 | 36998 ft | 478 kts | 180° |
| 2026-04-30 13:23 | 22.71828 | -80.95877 | 37003 ft | 479 kts | 180° |
| 2026-04-30 13:24 | 22.58535 | -80.95356 | 37005 ft | 479 kts | 180° |
| 2026-04-30 13:25 | 22.45196 | -80.94835 | 37004 ft | 479 kts | 180° |
| 2026-04-30 13:26 | 22.28543 | -80.94185 | 37001 ft | 479 kts | 180° |
| 2026-04-30 13:28 | 22.11964 | -80.93540 | 36994 ft | 475 kts | 181° |
| 2026-04-30 13:28 | 22.02034 | -80.93154 | 37002 ft | 475 kts | 181° |
| 2026-04-30 13:29 | 21.88840 | -80.92643 | 36993 ft | 475 kts | 181° |
| 2026-04-30 13:31 | 21.72401 | -80.92006 | 36998 ft | 472 kts | 181° |
| 2026-04-30 13:32 | 21.57105 | -80.91416 | 36996 ft | 472 kts | 181° |
| 2026-04-30 13:33 | 21.44074 | -80.90912 | 37001 ft | 468 kts | 182° |
| 2026-04-30 13:34 | 21.34309 | -80.90533 | 37000 ft | 468 kts | 182° |
| 2026-04-30 13:35 | 21.21292 | -80.90029 | 36993 ft | 468 kts | 182° |
| 2026-04-30 13:36 | 21.08274 | -80.89526 | 36991 ft | 468 kts | 182° |
| 2026-04-30 13:36 | 20.98545 | -80.89098 | 36991 ft | 468 kts | 181° |
| 2026-04-30 13:37 | 20.88778 | -80.88670 | 36978 ft | 468 kts | 182° |
| 2026-04-30 13:38 | 20.79021 | -80.88243 | 36990 ft | 467 kts | 182° |
| 2026-04-30 13:39 | 20.66056 | -80.87677 | 36987 ft | 467 kts | 182° |
| 2026-04-30 13:40 | 20.56310 | -80.87252 | 36976 ft | 467 kts | 182° |
| 2026-04-30 13:40 | 20.49805 | -80.86968 | 36986 ft | 467 kts | 182° |
| 2026-04-30 13:41 | 20.43352 | -80.86687 | 36982 ft | 467 kts | 182° |
| 2026-04-30 13:41 | 20.36854 | -80.86404 | 36985 ft | 467 kts | 182° |
| 2026-04-30 13:42 | 20.30357 | -80.86122 | 36984 ft | 467 kts | 182° |
| 2026-04-30 13:42 | 20.20613 | -80.85699 | 36979 ft | 467 kts | 182° |
| 2026-04-30 13:43 | 20.14122 | -80.85418 | 36985 ft | 466 kts | 182° |
| 2026-04-30 13:43 | 20.07683 | -80.85138 | 36985 ft | 466 kts | 182° |
| 2026-04-30 13:44 | 20.01175 | -80.84856 | 36982 ft | 466 kts | 182° |
| 2026-04-30 13:44 | 19.94687 | -80.84542 | 36983 ft | 466 kts | 182° |
| 2026-04-30 13:45 | 19.84958 | -80.84074 | 36986 ft | 464 kts | 182° |
| 2026-04-30 13:46 | 19.78557 | -80.83767 | 36982 ft | 463 kts | 182° |
| 2026-04-30 13:46 | 19.72104 | -80.83457 | 36984 ft | 464 kts | 182° |
| 2026-04-30 13:47 | 19.65699 | -80.83150 | 36979 ft | 464 kts | 182° |
| 2026-04-30 13:47 | 19.59244 | -80.82841 | 36981 ft | 464 kts | 182° |
| 2026-04-30 13:48 | 19.52793 | -80.82532 | 36982 ft | 461 kts | 182° |
| 2026-04-30 13:48 | 19.46396 | -80.82226 | 36975 ft | 459 kts | 182° |
| 2026-04-30 13:49 | 19.40042 | -80.81923 | 36980 ft | 459 kts | 182° |
| 2026-04-30 13:49 | 19.33656 | -80.81618 | 36979 ft | 459 kts | 182° |
| 2026-04-30 13:50 | 19.27265 | -80.81313 | 36981 ft | 459 kts | 182° |
| 2026-04-30 13:50 | 19.17692 | -80.80857 | 36977 ft | 457 kts | 181° |
| 2026-04-30 13:51 | 19.11331 | -80.80554 | 36979 ft | 457 kts | 181° |
| 2026-04-30 13:51 | 19.04988 | -80.80253 | 36979 ft | 457 kts | 181° |
| 2026-04-30 13:52 | 18.98620 | -80.79950 | 36977 ft | 457 kts | 181° |
| 2026-04-30 13:52 | 18.92311 | -80.79650 | 36977 ft | 457 kts | 181° |
| 2026-04-30 13:53 | 18.85951 | -80.79348 | 36971 ft | 457 kts | 181° |
| 2026-04-30 13:53 | 18.79591 | -80.79047 | 36974 ft | 456 kts | 181° |
| 2026-04-30 13:54 | 18.73234 | -80.78746 | 36975 ft | 456 kts | 181° |
| 2026-04-30 13:54 | 18.66931 | -80.78447 | 36975 ft | 456 kts | 181° |
| 2026-04-30 13:55 | 18.60584 | -80.78147 | 36975 ft | 456 kts | 181° |
| 2026-04-30 13:55 | 18.54226 | -80.77846 | 36965 ft | 456 kts | 181° |
| 2026-04-30 13:56 | 18.47879 | -80.77546 | 36971 ft | 456 kts | 181° |
| 2026-04-30 13:56 | 18.41537 | -80.77247 | 36973 ft | 456 kts | 181° |
| 2026-04-30 13:57 | 18.35229 | -80.76949 | 36975 ft | 456 kts | 181° |
| 2026-04-30 13:57 | 18.28890 | -80.76651 | 36971 ft | 456 kts | 181° |
| 2026-04-30 13:58 | 18.19375 | -80.76202 | 36960 ft | 456 kts | 180° |
| 2026-04-30 13:59 | 18.13074 | -80.75906 | 36977 ft | 456 kts | 180° |
| 2026-04-30 13:59 | 18.06742 | -80.75608 | 36973 ft | 455 kts | 180° |
| 2026-04-30 14:00 | 18.00408 | -80.75311 | 36976 ft | 455 kts | 181° |
| 2026-04-30 14:00 | 17.90930 | -80.74866 | 36976 ft | 455 kts | 180° |
| 2026-04-30 14:01 | 17.84604 | -80.74569 | 36971 ft | 455 kts | 180° |
| 2026-04-30 14:01 | 17.78248 | -80.74271 | 36971 ft | 455 kts | 180° |
| 2026-04-30 14:02 | 17.71916 | -80.73974 | 36974 ft | 455 kts | 180° |
| 2026-04-30 14:02 | 17.65592 | -80.73678 | 36966 ft | 455 kts | 180° |
| 2026-04-30 14:03 | 17.59246 | -80.73381 | 36965 ft | 455 kts | 180° |
| 2026-04-30 14:03 | 17.52952 | -80.73087 | 36964 ft | 455 kts | 180° |
| 2026-04-30 14:04 | 17.46607 | -80.72791 | 36968 ft | 457 kts | 180° |
| 2026-04-30 14:04 | 17.40261 | -80.72494 | 36965 ft | 457 kts | 180° |
| 2026-04-30 14:05 | 17.33925 | -80.72199 | 36963 ft | 456 kts | 180° |
| 2026-04-30 14:05 | 17.27561 | -80.71902 | 36963 ft | 456 kts | 180° |
| 2026-04-30 14:06 | 17.18073 | -80.71460 | 36954 ft | 456 kts | 180° |
| 2026-04-30 14:07 | 17.08518 | -80.71015 | 36961 ft | 458 kts | 180° |
| 2026-04-30 14:08 | 16.98994 | -80.70572 | 36961 ft | 458 kts | 180° |
| 2026-04-30 14:08 | 16.89436 | -80.70128 | 36960 ft | 458 kts | 180° |
| 2026-04-30 14:09 | 16.83063 | -80.69832 | 36949 ft | 458 kts | 181° |
| 2026-04-30 14:10 | 16.73513 | -80.69389 | 36957 ft | 459 kts | 181° |
| 2026-04-30 14:10 | 16.67118 | -80.69093 | 36954 ft | 458 kts | 181° |
| 2026-04-30 14:11 | 16.60740 | -80.68798 | 36956 ft | 458 kts | 181° |
| 2026-04-30 14:11 | 16.54359 | -80.68502 | 36955 ft | 459 kts | 181° |
| 2026-04-30 14:12 | 16.48033 | -80.68210 | 36944 ft | 458 kts | 181° |
| 2026-04-30 14:12 | 16.41623 | -80.67914 | 36950 ft | 456 kts | 181° |
| 2026-04-30 14:13 | 16.35322 | -80.67623 | 36954 ft | 456 kts | 181° |
| 2026-04-30 14:13 | 16.28969 | -80.67330 | 36956 ft | 456 kts | 181° |
| 2026-04-30 14:14 | 16.22615 | -80.67036 | 36952 ft | 456 kts | 181° |
| 2026-04-30 14:14 | 16.16275 | -80.66744 | 36952 ft | 456 kts | 181° |
| 2026-04-30 14:15 | 16.09963 | -80.66453 | 36949 ft | 455 kts | 181° |
| 2026-04-30 14:15 | 16.03651 | -80.66163 | 36948 ft | 454 kts | 181° |
| 2026-04-30 14:16 | 15.97336 | -80.65872 | 36947 ft | 454 kts | 181° |
| 2026-04-30 14:16 | 15.91016 | -80.65582 | 36943 ft | 454 kts | 181° |
| 2026-04-30 14:17 | 15.84693 | -80.65291 | 36947 ft | 454 kts | 181° |
| 2026-04-30 14:17 | 15.78395 | -80.65002 | 36936 ft | 454 kts | 182° |
| 2026-04-30 14:18 | 15.72085 | -80.64712 | 36941 ft | 452 kts | 182° |
| 2026-04-30 14:18 | 15.62699 | -80.64282 | 36945 ft | 452 kts | 182° |
| 2026-04-30 14:19 | 15.53259 | -80.63849 | 36944 ft | 452 kts | 182° |
| 2026-04-30 14:20 | 15.46972 | -80.63562 | 36942 ft | 452 kts | 182° |
| 2026-04-30 14:20 | 15.37585 | -80.63132 | 36939 ft | 451 kts | 182° |
| 2026-04-30 14:21 | 15.31325 | -80.62846 | 36941 ft | 450 kts | 182° |
| 2026-04-30 14:22 | 15.22986 | -80.62465 | 36941 ft | 450 kts | 182° |
| 2026-04-30 14:22 | 15.13593 | -80.62036 | 36941 ft | 450 kts | 182° |
| 2026-04-30 14:23 | 15.01068 | -80.61462 | 36932 ft | 450 kts | 181° |
| 2026-04-30 14:24 | 14.91701 | -80.59986 | 36927 ft | 454 kts | 175° |
| 2026-04-30 14:25 | 14.79268 | -80.57850 | 36933 ft | 454 kts | 175° |
| 2026-04-30 14:26 | 14.69908 | -80.56242 | 36931 ft | 453 kts | 175° |
| 2026-04-30 14:27 | 14.60633 | -80.54651 | 36927 ft | 451 kts | 175° |
| 2026-04-30 14:27 | 14.54435 | -80.53588 | 36932 ft | 451 kts | 175° |
| 2026-04-30 14:28 | 14.45156 | -80.51998 | 36927 ft | 450 kts | 175° |
| 2026-04-30 14:28 | 14.38975 | -80.50939 | 36922 ft | 450 kts | 175° |
| 2026-04-30 14:29 | 14.26602 | -80.48822 | 36924 ft | 450 kts | 175° |
| 2026-04-30 14:31 | 14.11181 | -80.46187 | 36934 ft | 450 kts | 175° |
| 2026-04-30 14:31 | 14.01911 | -80.44604 | 36912 ft | 450 kts | 175° |
| 2026-04-30 14:32 | 13.92637 | -80.43022 | 36920 ft | 450 kts | 175° |
| 2026-04-30 14:33 | 13.86504 | -80.41977 | 36918 ft | 450 kts | 175° |
| 2026-04-30 14:33 | 13.77229 | -80.40397 | 36921 ft | 450 kts | 175° |
| 2026-04-30 14:34 | 13.71037 | -80.39343 | 36918 ft | 450 kts | 175° |
| 2026-04-30 14:34 | 13.64859 | -80.38292 | 36917 ft | 450 kts | 175° |
| 2026-04-30 14:35 | 13.55575 | -80.36714 | 36916 ft | 450 kts | 175° |
| 2026-04-30 14:36 | 13.49437 | -80.35671 | 36912 ft | 450 kts | 175° |
| 2026-04-30 14:36 | 13.43260 | -80.34622 | 36914 ft | 450 kts | 175° |
| 2026-04-30 14:37 | 13.37068 | -80.33571 | 36920 ft | 450 kts | 175° |
| 2026-04-30 14:37 | 13.30884 | -80.32522 | 36904 ft | 450 kts | 175° |
| 2026-04-30 14:38 | 13.24745 | -80.31481 | 36905 ft | 450 kts | 175° |
| 2026-04-30 14:38 | 13.18567 | -80.30434 | 36910 ft | 450 kts | 175° |
| 2026-04-30 14:39 | 13.12380 | -80.29386 | 36909 ft | 450 kts | 175° |
| 2026-04-30 14:39 | 13.06197 | -80.28339 | 36910 ft | 450 kts | 175° |
| 2026-04-30 14:40 | 12.96925 | -80.26770 | 36907 ft | 450 kts | 175° |
| 2026-04-30 14:40 | 12.90734 | -80.25723 | 36903 ft | 451 kts | 175° |
| 2026-04-30 14:41 | 12.84549 | -80.24678 | 36901 ft | 452 kts | 175° |
| 2026-04-30 14:41 | 12.78350 | -80.23631 | 36902 ft | 452 kts | 175° |
| 2026-04-30 14:42 | 12.72141 | -80.22583 | 36901 ft | 452 kts | 175° |
| 2026-04-30 14:42 | 12.65926 | -80.21534 | 36902 ft | 452 kts | 175° |
| 2026-04-30 14:43 | 12.59761 | -80.20495 | 36898 ft | 452 kts | 175° |
| 2026-04-30 14:43 | 12.53555 | -80.19448 | 36900 ft | 452 kts | 175° |
| 2026-04-30 14:44 | 12.47351 | -80.18403 | 36897 ft | 452 kts | 175° |
| 2026-04-30 14:44 | 12.41142 | -80.17357 | 36895 ft | 452 kts | 175° |
| 2026-04-30 14:45 | 12.34974 | -80.16319 | 36896 ft | 452 kts | 175° |
| 2026-04-30 14:45 | 12.28772 | -80.15276 | 36895 ft | 451 kts | 175° |
| 2026-04-30 14:46 | 12.22574 | -80.14233 | 36883 ft | 451 kts | 175° |
| 2026-04-30 14:46 | 12.16389 | -80.13193 | 36895 ft | 450 kts | 175° |
| 2026-04-30 14:47 | 12.10206 | -80.12155 | 36894 ft | 450 kts | 175° |
| 2026-04-30 14:47 | 12.04063 | -80.11123 | 36894 ft | 450 kts | 175° |
| 2026-04-30 14:48 | 11.97884 | -80.10086 | 36894 ft | 450 kts | 175° |
| 2026-04-30 14:48 | 11.91696 | -80.09047 | 36893 ft | 450 kts | 175° |
| 2026-04-30 14:49 | 11.85511 | -80.08010 | 36868 ft | 450 kts | 174° |
| 2026-04-30 14:49 | 11.79340 | -80.06976 | 36885 ft | 451 kts | 174° |
| 2026-04-30 14:50 | 11.70062 | -80.05422 | 36886 ft | 451 kts | 174° |
| 2026-04-30 14:51 | 11.60772 | -80.03866 | 36884 ft | 451 kts | 174° |
| 2026-04-30 14:52 | 11.51478 | -80.02311 | 36880 ft | 451 kts | 174° |
| 2026-04-30 14:52 | 11.42218 | -80.00763 | 36880 ft | 451 kts | 174° |
| 2026-04-30 14:53 | 11.32931 | -79.99212 | 36881 ft | 451 kts | 173° |
| 2026-04-30 14:54 | 11.20546 | -79.97144 | 36884 ft | 450 kts | 174° |
| 2026-04-30 14:55 | 11.11260 | -79.95594 | 36873 ft | 451 kts | 173° |
| 2026-04-30 14:56 | 10.98959 | -79.93544 | 36881 ft | 451 kts | 173° |
| 2026-04-30 14:57 | 10.89587 | -79.91983 | 36881 ft | 451 kts | 173° |
| 2026-04-30 14:58 | 10.77179 | -79.89917 | 36895 ft | 452 kts | 173° |
| 2026-04-30 14:58 | 10.67920 | -79.88377 | 36874 ft | 451 kts | 173° |
| 2026-04-30 15:00 | 10.52427 | -79.85802 | 36890 ft | 451 kts | 173° |
| 2026-04-30 15:01 | 10.40028 | -79.83725 | 36875 ft | 451 kts | 173° |
| 2026-04-30 15:01 | 10.30766 | -79.82136 | 36884 ft | 451 kts | 173° |
| 2026-04-30 15:02 | 10.24560 | -79.81072 | 36857 ft | 450 kts | 173° |
| 2026-04-30 15:03 | 10.09114 | -79.78428 | 36883 ft | 452 kts | 173° |
| 2026-04-30 15:04 | 9.93625 | -79.75777 | 36875 ft | 454 kts | 173° |
| 2026-04-30 15:06 | 9.78035 | -79.73113 | 36877 ft | 454 kts | 173° |
| 2026-04-30 15:07 | 9.65589 | -79.70988 | 36866 ft | 455 kts | 174° |
| 2026-04-30 15:08 | 9.54083 | -79.69024 | 36871 ft | 458 kts | 174° |
| 2026-04-30 15:09 | 9.38354 | -79.66342 | 36873 ft | 458 kts | 174° |
| 2026-04-30 15:10 | 9.25809 | -79.64205 | 36868 ft | 459 kts | 174° |
| 2026-04-30 15:11 | 9.06907 | -79.60987 | 36855 ft | 459 kts | 174° |
| 2026-04-30 15:13 | 8.91135 | -79.58306 | 36820 ft | 459 kts | 174° |
| 2026-04-30 15:14 | 8.69026 | -79.55130 | 36841 ft | 458 kts | 177° |
| 2026-04-30 15:17 | 8.40657 | -79.51759 | 36854 ft | 455 kts | 178° |
| 2026-04-30 15:19 | 8.15491 | -79.48771 | 36859 ft | 454 kts | 178° |